createdAt,value
2022-12-29T00:00:43.297Z,3.52
2022-12-29T00:03:28.607Z,3.66
2022-12-29T00:06:13.829Z,3.85
2022-12-29T00:08:58.693Z,4.32
2022-12-29T00:11:43.761Z,4.34
2022-12-29T00:14:28.649Z,4.55
2022-12-29T00:17:13.637Z,4.76
2022-12-29T00:19:58.893Z,5.01
2022-12-29T00:22:43.822Z,5.17
2022-12-29T00:25:28.681Z,4.88
2022-12-29T00:28:13.511Z,4.97
2022-12-29T00:30:58.947Z,4.68
2022-12-29T00:33:43.821Z,4.34
2022-12-29T00:36:28.821Z,3.78
2022-12-29T00:39:13.697Z,3.65
2022-12-29T00:41:59.233Z,3.64
2022-12-29T00:44:44.020Z,3.38
2022-12-29T00:47:28.886Z,3.78
2022-12-29T00:50:13.742Z,3.71
2022-12-29T00:52:59.083Z,3.36
2022-12-29T00:55:43.893Z,3.49
2022-12-29T00:58:28.697Z,3.50
2022-12-29T01:01:13.673Z,3.31
2022-12-29T01:04:03.702Z,3.17
2022-12-29T01:06:49.365Z,3.19
2022-12-29T01:09:34.491Z,3.04
2022-12-29T01:12:19.344Z,3.02
2022-12-29T01:15:04.156Z,2.96
2022-12-29T01:17:49.157Z,3.16
2022-12-29T01:20:34.052Z,2.89
2022-12-29T01:23:19.420Z,2.83
2022-12-29T01:26:04.211Z,3.02
2022-12-29T01:28:49.112Z,3.15
2022-12-29T01:31:33.804Z,3.23
2022-12-29T01:34:18.758Z,3.06
2022-12-29T01:37:03.738Z,3.30
2022-12-29T01:39:48.709Z,3.37
2022-12-29T01:42:33.591Z,3.13
2022-12-29T01:45:18.505Z,3.39
2022-12-29T01:48:03.363Z,3.35
2022-12-29T01:50:48.265Z,3.18
2022-12-29T01:53:33.258Z,3.60
2022-12-29T01:56:18.142Z,3.77
2022-12-29T01:59:03.070Z,3.85
2022-12-29T02:01:48.042Z,3.91
2022-12-29T02:04:33.305Z,3.98
2022-12-29T02:07:19.085Z,3.70
2022-12-29T02:10:04.044Z,3.70
2022-12-29T02:12:49.071Z,3.26
2022-12-29T02:15:33.859Z,3.26
2022-12-29T02:18:19.474Z,3.36
2022-12-29T02:21:04.320Z,3.50
2022-12-29T02:23:49.271Z,3.21
2022-12-29T02:26:34.193Z,3.17
2022-12-29T02:29:18.978Z,3.08
2022-12-29T02:32:03.974Z,3.01
2022-12-29T02:34:48.912Z,3.01
2022-12-29T02:37:33.864Z,2.88
2022-12-29T02:40:19.291Z,2.87
2022-12-29T02:43:04.234Z,3.06
2022-12-29T02:45:49.228Z,3.21
2022-12-29T02:48:34.669Z,2.87
2022-12-29T02:51:19.553Z,2.82
2022-12-29T02:54:04.531Z,2.87
2022-12-29T02:56:49.604Z,2.73
2022-12-29T02:59:34.423Z,2.65
2022-12-29T03:02:19.339Z,2.90
2022-12-29T03:05:04.722Z,2.91
2022-12-29T03:07:49.599Z,2.65
2022-12-29T03:10:34.531Z,2.66
2022-12-29T03:13:19.374Z,2.84
2022-12-29T03:16:04.376Z,3.19
2022-12-29T03:18:49.569Z,2.50
2022-12-29T03:21:34.621Z,2.66
2022-12-29T03:24:19.472Z,2.64
2022-12-29T03:27:04.368Z,2.57
2022-12-29T03:29:49.125Z,2.51
2022-12-29T03:32:34.058Z,2.56
2022-12-29T03:35:18.926Z,2.63
2022-12-29T03:38:03.862Z,2.65
2022-12-29T03:40:48.885Z,2.67
2022-12-29T03:43:33.677Z,3.04
2022-12-29T03:46:19.112Z,3.03
2022-12-29T03:49:04.041Z,2.47
2022-12-29T03:51:51.747Z,2.31
2022-12-29T03:54:36.964Z,2.33
2022-12-29T03:57:21.825Z,2.30
2022-12-29T04:00:06.929Z,2.34
2022-12-29T04:02:52.516Z,2.23
2022-12-29T04:05:37.664Z,2.01
2022-12-29T04:08:22.428Z,2.43
2022-12-29T04:11:07.566Z,2.27
2022-12-29T04:13:52.494Z,2.25
2022-12-29T04:16:37.454Z,1.93
2022-12-29T04:19:22.396Z,2.07
2022-12-29T04:22:07.219Z,2.01
2022-12-29T04:24:52.729Z,1.91
2022-12-29T04:27:37.579Z,2.00
2022-12-29T04:30:22.543Z,2.18
2022-12-29T04:33:07.280Z,2.04
2022-12-29T04:35:52.710Z,2.08
2022-12-29T04:38:37.632Z,2.11
2022-12-29T04:41:22.456Z,2.28
2022-12-29T04:44:07.338Z,2.35
2022-12-29T04:46:52.186Z,2.37
2022-12-29T04:49:37.114Z,2.51
2022-12-29T04:52:21.991Z,2.22
2022-12-29T04:55:07.064Z,2.30
2022-12-29T04:57:52.317Z,2.34
2022-12-29T05:00:37.296Z,2.37
2022-12-29T05:03:22.348Z,2.39
2022-12-29T05:06:07.170Z,2.44
2022-12-29T05:08:52.489Z,2.17
2022-12-29T05:11:37.320Z,2.26
2022-12-29T05:14:22.234Z,2.19
2022-12-29T05:17:07.125Z,2.13
2022-12-29T05:19:52.683Z,2.06
2022-12-29T05:22:37.531Z,2.14
2022-12-29T05:25:22.507Z,2.88
2022-12-29T05:28:07.443Z,2.73
2022-12-29T05:30:52.739Z,2.61
2022-12-29T05:33:37.616Z,2.55
2022-12-29T05:36:22.478Z,2.42
2022-12-29T05:39:07.372Z,2.63
2022-12-29T05:41:52.215Z,2.73
2022-12-29T05:44:37.057Z,2.85
2022-12-29T05:47:21.850Z,2.76
2022-12-29T05:50:06.648Z,2.46
2022-12-29T05:52:51.587Z,2.57
2022-12-29T05:55:36.428Z,2.36
2022-12-29T05:58:21.296Z,2.35
2022-12-29T06:01:06.098Z,2.40
2022-12-29T06:03:51.185Z,2.25
2022-12-29T06:06:36.435Z,2.13
2022-12-29T06:09:21.292Z,2.10
2022-12-29T06:12:06.431Z,2.21
2022-12-29T06:14:51.255Z,2.07
2022-12-29T06:17:36.349Z,2.08
2022-12-29T06:20:21.635Z,2.13
2022-12-29T06:23:06.626Z,2.40
2022-12-29T06:25:52.538Z,2.15
2022-12-29T06:28:37.573Z,2.30
2022-12-29T06:31:22.423Z,2.29
2022-12-29T06:34:08.621Z,2.29
2022-12-29T06:36:53.781Z,2.25
2022-12-29T06:39:38.636Z,2.22
2022-12-29T06:42:23.645Z,2.05
2022-12-29T06:45:08.429Z,2.16
2022-12-29T06:47:53.271Z,2.20
2022-12-29T06:50:37.975Z,2.43
2022-12-29T06:53:22.799Z,2.22
2022-12-29T06:56:07.745Z,2.40
2022-12-29T06:58:52.558Z,2.27
2022-12-29T07:01:37.552Z,2.07
2022-12-29T07:04:22.799Z,1.97
2022-12-29T07:07:07.841Z,2.13
2022-12-29T07:09:52.589Z,2.07
2022-12-29T07:12:37.425Z,1.92
2022-12-29T07:15:22.369Z,2.03
2022-12-29T07:18:07.261Z,2.10
2022-12-29T07:20:52.400Z,1.99
2022-12-29T07:23:37.137Z,1.83
2022-12-29T07:26:21.952Z,1.77
2022-12-29T07:29:06.961Z,1.98
2022-12-29T07:31:51.886Z,1.98
2022-12-29T07:34:36.635Z,2.10
2022-12-29T07:37:21.589Z,2.29
2022-12-29T07:40:06.530Z,2.01
2022-12-29T07:42:51.371Z,2.04
2022-12-29T07:45:36.366Z,1.98
2022-12-29T07:48:21.626Z,2.01
2022-12-29T07:51:06.531Z,2.05
2022-12-29T07:53:51.279Z,1.90
2022-12-29T07:56:36.184Z,1.92
2022-12-29T07:59:21.014Z,2.09
2022-12-29T08:02:05.946Z,2.06
2022-12-29T08:04:51.186Z,2.09
2022-12-29T08:07:36.066Z,2.15
2022-12-29T08:10:21.094Z,2.20
2022-12-29T08:13:05.924Z,2.08
2022-12-29T08:15:51.003Z,2.23
2022-12-29T08:18:35.794Z,2.05
2022-12-29T08:21:20.635Z,2.03
2022-12-29T08:24:05.531Z,1.98
2022-12-29T08:26:50.377Z,2.13
2022-12-29T08:29:35.143Z,2.08
2022-12-29T08:32:20.090Z,2.06
2022-12-29T08:35:04.998Z,2.23
2022-12-29T08:37:50.007Z,2.27
2022-12-29T08:40:34.911Z,2.19
2022-12-29T08:43:19.929Z,2.19
2022-12-29T08:46:04.860Z,2.20
2022-12-29T08:48:50.180Z,2.04
2022-12-29T08:51:34.929Z,2.04
2022-12-29T08:54:19.738Z,2.15
2022-12-29T08:57:04.648Z,2.14
2022-12-29T08:59:49.475Z,2.14
2022-12-29T09:02:34.608Z,2.15
2022-12-29T09:05:19.928Z,2.30
2022-12-29T09:08:05.278Z,2.25
2022-12-29T09:10:50.193Z,2.25
2022-12-29T09:13:34.987Z,2.44
2022-12-29T09:16:20.030Z,2.26
2022-12-29T09:19:05.443Z,2.38
2022-12-29T09:21:50.254Z,2.13
2022-12-29T09:24:35.045Z,2.12
2022-12-29T09:27:19.926Z,2.23
2022-12-29T09:30:04.772Z,2.16
2022-12-29T09:32:54.788Z,2.06
2022-12-29T09:35:39.976Z,2.17
2022-12-29T09:38:24.791Z,2.18
2022-12-29T09:41:09.709Z,2.24
2022-12-29T09:43:54.686Z,1.96
2022-12-29T09:46:39.564Z,1.95
2022-12-29T09:49:24.916Z,2.02
2022-12-29T09:52:09.845Z,2.13
2022-12-29T09:55:00.507Z,2.27
2022-12-29T09:57:48.309Z,2.01
2022-12-29T10:00:33.192Z,2.10
2022-12-29T10:03:18.107Z,2.22
2022-12-29T10:06:03.481Z,2.17
2022-12-29T10:08:48.454Z,1.98
2022-12-29T10:11:33.362Z,2.13
2022-12-29T10:14:18.968Z,2.18
2022-12-29T10:17:03.731Z,2.17
2022-12-29T10:19:48.867Z,2.05
2022-12-29T10:22:33.689Z,2.30
2022-12-29T10:25:18.722Z,2.49
2022-12-29T10:28:03.479Z,2.29
2022-12-29T10:30:48.521Z,2.08
2022-12-29T10:33:33.540Z,2.07
2022-12-29T10:36:18.326Z,2.23
2022-12-29T10:39:03.353Z,2.33
2022-12-29T10:41:48.190Z,2.14
2022-12-29T10:44:33.160Z,2.30
2022-12-29T10:47:17.958Z,2.12
2022-12-29T10:50:03.049Z,1.91
2022-12-29T10:52:47.835Z,1.83
2022-12-29T10:55:32.827Z,2.26
2022-12-29T10:58:17.757Z,2.07
2022-12-29T11:01:02.723Z,2.02
2022-12-29T11:03:47.625Z,1.81
2022-12-29T11:06:32.553Z,1.93
2022-12-29T11:09:17.503Z,2.02
2022-12-29T11:12:02.263Z,2.11
2022-12-29T11:14:47.171Z,1.96
2022-12-29T11:17:31.969Z,2.13
2022-12-29T11:20:16.987Z,1.89
2022-12-29T11:23:01.939Z,2.13
2022-12-29T11:25:46.794Z,1.96
2022-12-29T11:28:31.893Z,2.11
2022-12-29T11:31:16.835Z,2.23
2022-12-29T11:34:01.759Z,2.09
2022-12-29T11:36:46.579Z,2.63
2022-12-29T11:39:31.395Z,2.94
2022-12-29T11:42:16.122Z,2.31
2022-12-29T11:45:03.137Z,2.00
2022-12-29T11:47:49.919Z,2.06
2022-12-29T11:50:34.834Z,2.14
2022-12-29T11:53:19.802Z,2.36
2022-12-29T11:56:04.649Z,2.47
2022-12-29T11:58:49.594Z,1.84
2022-12-29T12:01:34.518Z,1.99
2022-12-29T12:04:20.015Z,1.93
2022-12-29T12:07:05.390Z,1.79
2022-12-29T12:09:50.301Z,2.09
2022-12-29T12:12:35.196Z,2.12
2022-12-29T12:15:20.038Z,1.85
2022-12-29T12:18:04.995Z,2.29
2022-12-29T12:20:50.388Z,2.33
2022-12-29T12:23:35.224Z,2.48
2022-12-29T12:26:20.188Z,2.42
2022-12-29T12:29:05.024Z,2.56
2022-12-29T12:31:49.852Z,2.54
2022-12-29T12:34:34.543Z,2.75
2022-12-29T12:37:19.373Z,2.91
2022-12-29T12:40:04.200Z,3.01
2022-12-29T12:42:49.050Z,2.93
2022-12-29T12:45:33.921Z,2.71
2022-12-29T12:48:19.258Z,2.43
2022-12-29T12:51:04.317Z,2.35
2022-12-29T12:53:49.130Z,2.12
2022-12-29T12:56:34.075Z,2.10
2022-12-29T12:59:18.893Z,2.19
2022-12-29T13:02:03.850Z,2.30
2022-12-29T13:04:49.150Z,2.36
2022-12-29T13:07:34.035Z,2.23
2022-12-29T13:10:19.035Z,2.39
2022-12-29T13:13:03.948Z,2.23
2022-12-29T13:15:49.049Z,2.31
2022-12-29T13:18:33.910Z,2.37
2022-12-29T13:21:18.827Z,2.42
2022-12-29T13:24:03.749Z,2.11
2022-12-29T13:26:49.215Z,2.30
2022-12-29T13:29:34.093Z,2.13
2022-12-29T13:32:18.994Z,2.28
2022-12-29T13:35:04.025Z,2.31
2022-12-29T13:37:49.317Z,2.22
2022-12-29T13:40:34.449Z,2.10
2022-12-29T13:43:19.589Z,2.07
2022-12-29T13:46:04.473Z,2.19
2022-12-29T13:48:49.492Z,2.26
2022-12-29T13:51:34.476Z,2.08
2022-12-29T13:54:19.426Z,2.14
2022-12-29T13:57:16.533Z,2.09
2022-12-29T14:00:01.994Z,2.19
2022-12-29T14:02:47.241Z,2.43
2022-12-29T14:05:32.633Z,2.38
2022-12-29T14:08:17.387Z,2.38
2022-12-29T14:11:02.475Z,2.18
2022-12-29T14:13:47.617Z,2.33
2022-12-29T14:16:32.375Z,2.20
2022-12-29T14:19:17.265Z,2.24
2022-12-29T14:22:02.251Z,2.16
2022-12-29T14:24:47.215Z,2.25
2022-12-29T14:27:32.035Z,2.39
2022-12-29T14:30:16.983Z,2.30
2022-12-29T14:33:01.889Z,2.49
2022-12-29T14:35:47.327Z,2.42
2022-12-29T14:38:32.872Z,2.44
2022-12-29T14:41:20.931Z,2.22
2022-12-29T14:44:06.583Z,2.33
2022-12-29T14:46:51.977Z,2.15
2022-12-29T14:49:37.018Z,2.98
2022-12-29T14:52:21.994Z,4.14
2022-12-29T14:55:06.678Z,3.37
2022-12-29T14:57:51.724Z,3.83
2022-12-29T15:00:36.725Z,5.89
2022-12-29T15:03:22.443Z,4.73
2022-12-29T15:06:10.055Z,3.77
2022-12-29T15:08:55.150Z,3.08
2022-12-29T15:11:40.311Z,2.92
2022-12-29T15:14:25.176Z,3.48
2022-12-29T15:17:10.105Z,3.29
2022-12-29T15:19:54.961Z,3.28
2022-12-29T15:22:39.822Z,2.98
2022-12-29T15:25:24.542Z,2.95
2022-12-29T15:28:09.936Z,2.95
2022-12-29T15:30:56.036Z,2.97
2022-12-29T15:33:40.940Z,2.84
2022-12-29T15:36:25.914Z,2.88
2022-12-29T15:39:11.168Z,2.92
2022-12-29T15:41:56.309Z,3.18
2022-12-29T15:44:41.392Z,3.20
2022-12-29T15:47:26.525Z,3.10
2022-12-29T15:50:11.735Z,2.80
2022-12-29T15:52:56.553Z,2.95
2022-12-29T15:55:41.620Z,2.76
2022-12-29T15:58:26.731Z,2.45
2022-12-29T16:01:11.799Z,2.68
2022-12-29T16:03:57.419Z,2.98
2022-12-29T16:06:42.621Z,3.49
2022-12-29T16:09:27.645Z,4.03
2022-12-29T16:12:12.506Z,3.51
2022-12-29T16:14:57.787Z,3.67
2022-12-29T16:17:43.102Z,3.32
2022-12-29T16:20:28.201Z,3.59
2022-12-29T16:23:13.676Z,4.26
2022-12-29T16:25:59.256Z,4.15
2022-12-29T16:28:44.680Z,3.44
2022-12-29T16:31:29.731Z,3.25
2022-12-29T16:34:15.227Z,3.40
2022-12-29T16:37:00.102Z,3.37
2022-12-29T16:39:45.515Z,3.41
2022-12-29T16:42:30.463Z,3.29
2022-12-29T16:45:15.130Z,3.48
2022-12-29T16:48:00.245Z,3.90
2022-12-29T16:50:45.185Z,3.87
2022-12-29T16:53:30.644Z,3.56
2022-12-29T16:56:15.873Z,3.45
2022-12-29T16:59:01.293Z,3.43
2022-12-29T17:01:46.498Z,3.13
2022-12-29T17:04:31.659Z,3.81
2022-12-29T17:07:16.780Z,3.39
2022-12-29T17:10:01.701Z,3.76
2022-12-29T17:12:46.598Z,3.95
2022-12-29T17:15:31.639Z,4.30
2022-12-29T17:18:17.113Z,3.92
2022-12-29T17:21:02.204Z,3.75
2022-12-29T17:23:47.022Z,3.79
2022-12-29T17:26:32.072Z,4.61
2022-12-29T17:29:17.085Z,6.07
2022-12-29T17:32:02.083Z,5.83
2022-12-29T17:34:46.968Z,5.36
2022-12-29T17:37:32.022Z,4.71
2022-12-29T17:40:16.802Z,4.61
2022-12-29T17:43:01.569Z,5.23
2022-12-29T17:45:46.557Z,5.12
2022-12-29T17:48:31.553Z,5.03
2022-12-29T17:51:16.556Z,5.29
2022-12-29T17:54:01.486Z,5.25
2022-12-29T17:56:46.360Z,5.17
2022-12-29T17:59:31.550Z,4.98
2022-12-29T18:02:16.844Z,5.17
2022-12-29T18:05:02.139Z,5.09
2022-12-29T18:07:47.140Z,5.42
2022-12-29T18:10:32.011Z,5.46
2022-12-29T18:13:16.769Z,5.96
2022-12-29T18:16:01.734Z,5.57
2022-12-29T18:18:46.527Z,5.07
2022-12-29T18:21:31.514Z,5.03
2022-12-29T18:24:16.649Z,5.84
2022-12-29T18:27:01.783Z,6.12
2022-12-29T18:29:46.616Z,6.16
2022-12-29T18:32:31.429Z,6.60
2022-12-29T18:35:16.468Z,8.54
2022-12-29T18:38:01.233Z,8.88
2022-12-29T18:40:46.101Z,8.24
2022-12-29T18:43:31.062Z,10.75
2022-12-29T18:46:22.095Z,8.20
2022-12-29T18:49:08.164Z,13.86
2022-12-29T18:51:53.058Z,13.03
2022-12-29T18:54:38.340Z,15.01
2022-12-29T18:57:23.637Z,7.34
2022-12-29T19:00:08.447Z,6.98
2022-12-29T19:02:53.305Z,7.99
2022-12-29T19:05:38.129Z,6.22
2022-12-29T19:08:23.097Z,11.16
2022-12-29T19:11:08.045Z,13.58
2022-12-29T19:13:52.861Z,18.22
2022-12-29T19:16:37.915Z,9.11
2022-12-29T19:19:22.748Z,10.19
2022-12-29T19:22:07.785Z,10.66
2022-12-29T19:24:58.059Z,12.92
2022-12-29T19:27:44.952Z,7.46
2022-12-29T19:30:29.932Z,6.69
2022-12-29T19:33:14.950Z,7.03
2022-12-29T19:35:59.768Z,8.45
2022-12-29T19:38:44.630Z,7.84
2022-12-29T19:41:29.641Z,5.94
2022-12-29T19:44:14.398Z,8.84
2022-12-29T19:46:59.490Z,3.70
2022-12-29T19:49:44.447Z,3.90
2022-12-29T19:52:29.325Z,3.41
2022-12-29T19:55:14.266Z,4.86
2022-12-29T19:57:59.105Z,2.80
2022-12-29T20:00:44.129Z,2.67
2022-12-29T20:03:28.967Z,2.78
2022-12-29T20:06:13.871Z,2.98
2022-12-29T20:08:58.928Z,3.06
2022-12-29T20:11:43.878Z,3.22
2022-12-29T20:14:28.749Z,3.19
2022-12-29T20:17:13.687Z,3.27
2022-12-29T20:19:58.695Z,3.58
2022-12-29T20:22:43.506Z,3.70
2022-12-29T20:25:45.682Z,3.72
2022-12-29T20:28:31.568Z,6.67
2022-12-29T20:31:16.515Z,4.16
2022-12-29T20:34:01.323Z,3.56
2022-12-29T20:36:46.184Z,3.17
2022-12-29T20:39:31.059Z,3.10
2022-12-29T20:42:15.960Z,2.86
2022-12-29T20:45:00.923Z,4.31
2022-12-29T20:47:45.688Z,6.01
2022-12-29T20:50:30.524Z,4.09
2022-12-29T20:53:15.557Z,4.25
2022-12-29T20:56:00.374Z,4.32
2022-12-29T20:59:25.913Z,4.37
2022-12-29T21:01:50.493Z,4.86
2022-12-29T21:05:05.589Z,4.55
2022-12-29T21:07:40.954Z,4.28
2022-12-29T21:10:25.957Z,4.33
2022-12-29T21:13:10.930Z,4.98
2022-12-29T21:15:55.948Z,4.67
2022-12-29T21:18:40.913Z,4.05
2022-12-29T21:21:26.078Z,4.19
2022-12-29T21:24:10.844Z,8.45
2022-12-29T21:26:55.814Z,4.41
2022-12-29T21:29:40.709Z,4.26
2022-12-29T21:32:25.558Z,4.16
2022-12-29T21:35:10.505Z,3.31
2022-12-29T21:37:55.471Z,3.33
2022-12-29T21:40:40.401Z,3.98
2022-12-29T21:43:25.328Z,2.45
2022-12-29T21:46:10.454Z,7.89
2022-12-29T21:48:55.235Z,6.92
2022-12-29T21:51:40.227Z,7.23
2022-12-29T21:54:25.015Z,5.68
2022-12-29T21:57:09.961Z,6.20
2022-12-29T21:59:54.950Z,8.71
2022-12-29T22:02:39.977Z,7.15
2022-12-29T22:05:25.408Z,3.23
2022-12-29T22:08:10.187Z,1.88
2022-12-29T22:10:54.992Z,1.98
2022-12-29T22:13:39.803Z,1.56
2022-12-29T22:16:24.913Z,0.96
2022-12-29T22:19:10.274Z,0.98
2022-12-29T22:21:55.154Z,1.30
2022-12-29T22:24:40.063Z,1.29
2022-12-29T22:27:24.941Z,1.34
2022-12-29T22:30:11.499Z,1.30
2022-12-29T22:32:56.357Z,1.28
2022-12-29T22:35:41.409Z,1.86
2022-12-29T22:38:26.318Z,2.09
2022-12-29T22:41:11.155Z,2.26
2022-12-29T22:43:56.090Z,3.15
2022-12-29T22:46:40.922Z,5.11
2022-12-29T22:49:25.912Z,5.28
2022-12-29T22:52:10.769Z,5.60
2022-12-29T22:54:55.672Z,5.43
2022-12-29T22:57:40.587Z,5.05
2022-12-29T23:00:25.611Z,5.03
2022-12-29T23:03:10.790Z,5.16
2022-12-29T23:05:55.946Z,4.84
2022-12-29T23:08:40.880Z,4.85
2022-12-29T23:11:25.685Z,4.66
2022-12-29T23:14:10.572Z,4.91
2022-12-29T23:16:55.389Z,5.16
2022-12-29T23:19:40.281Z,4.85
2022-12-29T23:22:25.093Z,4.17
2022-12-29T23:25:10.005Z,4.18
2022-12-29T23:27:54.901Z,4.49
2022-12-29T23:30:39.773Z,4.91
2022-12-29T23:33:24.636Z,4.87
2022-12-29T23:36:09.384Z,4.90
2022-12-29T23:38:54.415Z,5.35
2022-12-29T23:41:39.324Z,4.81
2022-12-29T23:44:24.274Z,4.93
2022-12-29T23:47:09.165Z,4.59
2022-12-29T23:49:54.119Z,4.83
2022-12-29T23:52:39.004Z,4.82
2022-12-29T23:55:23.716Z,4.30
2022-12-29T23:58:08.633Z,4.25
